sensor_id;sensor_type;location;lat;lon;timestamp;pressure;altitude;pressure_sealevel;temperature;humidity
59391;BME280;53405;57.012;40.984;2022-10-16T00:01:15;101258.41;;;7.45;72.77
59391;BME280;53405;57.012;40.984;2022-10-16T00:04:04;101270.22;;;7.39;73.99
59391;BME280;53405;57.012;40.984;2022-10-16T00:06:52;101267.34;;;7.42;73.65
59391;BME280;53405;57.012;40.984;2022-10-16T00:09:40;101259.16;;;7.35;73.28
59391;BME280;53405;57.012;40.984;2022-10-16T00:12:27;101267.59;;;7.39;73.58
59391;BME280;53405;57.012;40.984;2022-10-16T00:15:15;101241.25;;;7.19;73.01
59391;BME280;53405;57.012;40.984;2022-10-16T00:18:04;101261.91;;;7.34;73.75
59391;BME280;53405;57.012;40.984;2022-10-16T00:20:52;101268.97;;;7.33;73.14
59391;BME280;53405;57.012;40.984;2022-10-16T00:24:06;101272.38;;;7.13;74.17
59391;BME280;53405;57.012;40.984;2022-10-16T00:26:56;101278.75;;;7.20;74.95
59391;BME280;53405;57.012;40.984;2022-10-16T00:29:44;101266.59;;;7.19;74.45
59391;BME280;53405;57.012;40.984;2022-10-16T00:32:32;101264.97;;;7.18;74.26
59391;BME280;53405;57.012;40.984;2022-10-16T00:35:19;101270.28;;;7.28;74.33
59391;BME280;53405;57.012;40.984;2022-10-16T00:38:07;101278.84;;;7.30;73.92
59391;BME280;53405;57.012;40.984;2022-10-16T00:40:54;101285.78;;;7.19;74.52
59391;BME280;53405;57.012;40.984;2022-10-16T00:43:44;101275.94;;;7.12;74.26
59391;BME280;53405;57.012;40.984;2022-10-16T00:46:38;101272.25;;;7.14;75.56
59391;BME280;53405;57.012;40.984;2022-10-16T00:49:26;101278.09;;;7.07;74.93
59391;BME280;53405;57.012;40.984;2022-10-16T00:52:14;101270.59;;;7.02;75.94
59391;BME280;53405;57.012;40.984;2022-10-16T00:55:03;101275.53;;;7.28;74.87
59391;BME280;53405;57.012;40.984;2022-10-16T00:57:52;101279.44;;;7.22;73.97
59391;BME280;53405;57.012;40.984;2022-10-16T01:00:41;101280.09;;;7.14;74.76
59391;BME280;53405;57.012;40.984;2022-10-16T01:03:35;101279.56;;;7.20;75.35
59391;BME280;53405;57.012;40.984;2022-10-16T01:06:39;101292.38;;;7.02;74.62
59391;BME280;53405;57.012;40.984;2022-10-16T01:13:13;101282.16;;;6.99;75.26
59391;BME280;53405;57.012;40.984;2022-10-16T01:16:10;101277.16;;;6.96;76.08
59391;BME280;53405;57.012;40.984;2022-10-16T01:21:52;101290.53;;;6.82;75.83
59391;BME280;53405;57.012;40.984;2022-10-16T01:24:40;101289.34;;;6.75;76.28
59391;BME280;53405;57.012;40.984;2022-10-16T01:27:34;101292.69;;;6.77;76.39
59391;BME280;53405;57.012;40.984;2022-10-16T01:30:26;101285.41;;;6.80;76.27
59391;BME280;53405;57.012;40.984;2022-10-16T01:33:35;101291.94;;;6.75;76.71
59391;BME280;53405;57.012;40.984;2022-10-16T01:36:31;101282.88;;;6.90;76.76
59391;BME280;53405;57.012;40.984;2022-10-16T01:39:22;101286.31;;;7.02;76.15
59391;BME280;53405;57.012;40.984;2022-10-16T01:42:21;101288.81;;;7.03;75.46
59391;BME280;53405;57.012;40.984;2022-10-16T01:45:12;101278.81;;;7.09;75.82
59391;BME280;53405;57.012;40.984;2022-10-16T01:48:02;101293.53;;;7.21;76.47
59391;BME280;53405;57.012;40.984;2022-10-16T01:51:15;101291.81;;;7.31;74.57
59391;BME280;53405;57.012;40.984;2022-10-16T01:54:07;101293.25;;;7.35;75.31
59391;BME280;53405;57.012;40.984;2022-10-16T01:56:56;101290.50;;;7.37;74.98
59391;BME280;53405;57.012;40.984;2022-10-16T01:59:46;101304.28;;;7.39;74.36
59391;BME280;53405;57.012;40.984;2022-10-16T02:02:34;101304.22;;;7.29;73.96
59391;BME280;53405;57.012;40.984;2022-10-16T02:05:32;101292.44;;;7.23;75.04
59391;BME280;53405;57.012;40.984;2022-10-16T02:08:23;101298.78;;;7.21;74.67
59391;BME280;53405;57.012;40.984;2022-10-16T02:11:11;101309.88;;;7.13;75.90
59391;BME280;53405;57.012;40.984;2022-10-16T02:14:03;101300.91;;;7.27;74.71
59391;BME280;53405;57.012;40.984;2022-10-16T02:16:51;101299.16;;;7.16;75.35
59391;BME280;53405;57.012;40.984;2022-10-16T02:19:40;101299.59;;;7.21;75.16
59391;BME280;53405;57.012;40.984;2022-10-16T02:22:42;101299.63;;;7.10;75.30
59391;BME280;53405;57.012;40.984;2022-10-16T02:25:34;101284.31;;;6.94;76.09
59391;BME280;53405;57.012;40.984;2022-10-16T02:28:31;101298.69;;;7.00;76.39
59391;BME280;53405;57.012;40.984;2022-10-16T02:31:27;101306.31;;;7.03;75.43
59391;BME280;53405;57.012;40.984;2022-10-16T02:34:18;101305.28;;;6.94;76.21
59391;BME280;53405;57.012;40.984;2022-10-16T02:37:08;101311.81;;;6.88;76.32
59391;BME280;53405;57.012;40.984;2022-10-16T02:39:58;101307.28;;;7.02;76.38
59391;BME280;53405;57.012;40.984;2022-10-16T02:42:50;101308.59;;;6.96;75.76
59391;BME280;53405;57.012;40.984;2022-10-16T02:45:38;101309.06;;;6.90;76.96
59391;BME280;53405;57.012;40.984;2022-10-16T02:48:25;101306.94;;;6.84;76.59
59391;BME280;53405;57.012;40.984;2022-10-16T02:51:13;101314.34;;;6.79;77.41
59391;BME280;53405;57.012;40.984;2022-10-16T02:54:01;101306.13;;;6.83;76.65
59391;BME280;53405;57.012;40.984;2022-10-16T02:56:49;101311.22;;;6.85;76.77
59391;BME280;53405;57.012;40.984;2022-10-16T02:59:37;101312.06;;;6.85;76.78
59391;BME280;53405;57.012;40.984;2022-10-16T03:02:24;101299.00;;;6.63;77.07
59391;BME280;53405;57.012;40.984;2022-10-16T03:05:12;101315.16;;;6.68;77.44
59391;BME280;53405;57.012;40.984;2022-10-16T03:08:00;101321.00;;;6.60;77.51
59391;BME280;53405;57.012;40.984;2022-10-16T03:10:48;101315.28;;;6.66;78.30
59391;BME280;53405;57.012;40.984;2022-10-16T03:13:35;101312.78;;;6.76;78.03
59391;BME280;53405;57.012;40.984;2022-10-16T03:16:23;101312.03;;;6.97;77.07
59391;BME280;53405;57.012;40.984;2022-10-16T03:19:10;101297.19;;;6.63;76.86
59391;BME280;53405;57.012;40.984;2022-10-16T03:21:58;101317.78;;;6.79;77.39
59391;BME280;53405;57.012;40.984;2022-10-16T03:24:45;101320.03;;;6.73;76.90
59391;BME280;53405;57.012;40.984;2022-10-16T03:27:33;101321.13;;;6.70;77.77
59391;BME280;53405;57.012;40.984;2022-10-16T03:30:21;101325.41;;;6.60;77.41
59391;BME280;53405;57.012;40.984;2022-10-16T03:33:08;101317.19;;;6.64;77.98
59391;BME280;53405;57.012;40.984;2022-10-16T03:35:55;101313.25;;;6.59;77.55
59391;BME280;53405;57.012;40.984;2022-10-16T03:38:43;101293.03;;;6.38;77.66
59391;BME280;53405;57.012;40.984;2022-10-16T03:41:30;101326.13;;;6.50;77.75
59391;BME280;53405;57.012;40.984;2022-10-16T03:44:18;101326.81;;;6.41;78.03
59391;BME280;53405;57.012;40.984;2022-10-16T03:47:05;101333.03;;;6.51;78.00
59391;BME280;53405;57.012;40.984;2022-10-16T03:49:53;101334.72;;;6.64;77.50
59391;BME280;53405;57.012;40.984;2022-10-16T03:52:40;101328.13;;;6.69;77.17
59391;BME280;53405;57.012;40.984;2022-10-16T03:55:28;101329.13;;;6.68;77.52
59391;BME280;53405;57.012;40.984;2022-10-16T03:58:15;101329.94;;;6.69;76.47
59391;BME280;53405;57.012;40.984;2022-10-16T04:01:03;101323.38;;;6.63;76.46
59391;BME280;53405;57.012;40.984;2022-10-16T04:03:50;101336.00;;;6.58;76.46
59391;BME280;53405;57.012;40.984;2022-10-16T04:06:38;101326.25;;;6.60;77.06
59391;BME280;53405;57.012;40.984;2022-10-16T04:09:26;101340.28;;;6.59;76.45
59391;BME280;53405;57.012;40.984;2022-10-16T04:12:13;101347.78;;;6.64;76.19
59391;BME280;53405;57.012;40.984;2022-10-16T04:15:01;101339.56;;;6.57;75.98
59391;BME280;53405;57.012;40.984;2022-10-16T04:17:49;101339.09;;;6.63;76.10
59391;BME280;53405;57.012;40.984;2022-10-16T04:20:36;101336.81;;;6.59;75.54
59391;BME280;53405;57.012;40.984;2022-10-16T04:23:24;101342.31;;;6.67;76.05
59391;BME280;53405;57.012;40.984;2022-10-16T04:26:12;101350.28;;;6.65;75.99
59391;BME280;53405;57.012;40.984;2022-10-16T04:28:59;101316.84;;;6.46;75.50
59391;BME280;53405;57.012;40.984;2022-10-16T04:31:47;101319.44;;;6.46;75.70
59391;BME280;53405;57.012;40.984;2022-10-16T04:34:34;101351.34;;;6.51;76.04
59391;BME280;53405;57.012;40.984;2022-10-16T04:37:25;101357.41;;;6.52;75.85
59391;BME280;53405;57.012;40.984;2022-10-16T04:40:14;101356.72;;;6.50;76.55
59391;BME280;53405;57.012;40.984;2022-10-16T04:43:05;101358.63;;;6.71;75.58
59391;BME280;53405;57.012;40.984;2022-10-16T04:45:53;101361.91;;;6.95;74.95
59391;BME280;53405;57.012;40.984;2022-10-16T04:48:41;101365.25;;;7.09;73.60
59391;BME280;53405;57.012;40.984;2022-10-16T04:51:29;101357.72;;;7.15;73.29
59391;BME280;53405;57.012;40.984;2022-10-16T04:54:17;101354.75;;;7.09;72.95
59391;BME280;53405;57.012;40.984;2022-10-16T04:57:04;101365.50;;;6.94;73.24
59391;BME280;53405;57.012;40.984;2022-10-16T04:59:52;101361.94;;;6.73;73.90
59391;BME280;53405;57.012;40.984;2022-10-16T05:02:40;101365.16;;;6.65;74.19
59391;BME280;53405;57.012;40.984;2022-10-16T05:05:27;101359.56;;;6.69;73.98
59391;BME280;53405;57.012;40.984;2022-10-16T05:08:16;101357.75;;;6.59;74.26
59391;BME280;53405;57.012;40.984;2022-10-16T05:11:03;101368.97;;;6.72;74.02
59391;BME280;53405;57.012;40.984;2022-10-16T05:13:51;101362.91;;;6.83;73.78
59391;BME280;53405;57.012;40.984;2022-10-16T05:16:39;101344.44;;;6.84;73.40
59391;BME280;53405;57.012;40.984;2022-10-16T05:19:26;101364.69;;;6.94;72.82
59391;BME280;53405;57.012;40.984;2022-10-16T05:22:14;101367.03;;;6.97;73.64
59391;BME280;53405;57.012;40.984;2022-10-16T05:25:02;101364.16;;;7.00;72.91
59391;BME280;53405;57.012;40.984;2022-10-16T05:27:49;101378.25;;;6.99;72.39
59391;BME280;53405;57.012;40.984;2022-10-16T05:30:37;101373.81;;;7.11;72.09
59391;BME280;53405;57.012;40.984;2022-10-16T05:33:26;101372.38;;;7.18;71.88
59391;BME280;53405;57.012;40.984;2022-10-16T05:36:13;101387.63;;;7.13;71.70
59391;BME280;53405;57.012;40.984;2022-10-16T05:39:02;101386.16;;;7.31;72.05
59391;BME280;53405;57.012;40.984;2022-10-16T05:41:49;101388.16;;;7.39;71.25
59391;BME280;53405;57.012;40.984;2022-10-16T05:44:39;101381.94;;;7.51;71.21
59391;BME280;53405;57.012;40.984;2022-10-16T05:47:27;101390.25;;;7.56;70.36
59391;BME280;53405;57.012;40.984;2022-10-16T05:50:15;101392.00;;;7.35;69.86
59391;BME280;53405;57.012;40.984;2022-10-16T05:53:02;101367.47;;;7.24;70.73
59391;BME280;53405;57.012;40.984;2022-10-16T05:55:54;101386.63;;;7.25;70.01
59391;BME280;53405;57.012;40.984;2022-10-16T05:58:42;101391.31;;;7.21;70.89
59391;BME280;53405;57.012;40.984;2022-10-16T06:01:31;101389.25;;;7.25;70.19
59391;BME280;53405;57.012;40.984;2022-10-16T06:04:19;101389.00;;;7.28;70.19
59391;BME280;53405;57.012;40.984;2022-10-16T06:07:07;101391.03;;;7.36;70.20
59391;BME280;53405;57.012;40.984;2022-10-16T06:09:54;101382.34;;;7.35;69.85
59391;BME280;53405;57.012;40.984;2022-10-16T06:12:42;101390.25;;;7.56;69.55
59391;BME280;53405;57.012;40.984;2022-10-16T06:15:29;101379.59;;;7.81;69.98
59391;BME280;53405;57.012;40.984;2022-10-16T06:18:17;101389.91;;;7.93;67.73
59391;BME280;53405;57.012;40.984;2022-10-16T06:21:09;101394.28;;;7.93;67.73
59391;BME280;53405;57.012;40.984;2022-10-16T06:23:58;101395.00;;;7.95;67.73
59391;BME280;53405;57.012;40.984;2022-10-16T06:26:45;101386.22;;;7.85;67.50
59391;BME280;53405;57.012;40.984;2022-10-16T06:29:33;101390.53;;;7.86;67.78
59391;BME280;53405;57.012;40.984;2022-10-16T06:32:20;101391.75;;;8.03;67.53
59391;BME280;53405;57.012;40.984;2022-10-16T06:35:09;101388.25;;;8.13;67.17
59391;BME280;53405;57.012;40.984;2022-10-16T06:37:58;101392.66;;;8.34;66.85
59391;BME280;53405;57.012;40.984;2022-10-16T06:40:46;101370.41;;;8.38;66.09
59391;BME280;53405;57.012;40.984;2022-10-16T06:43:35;101394.38;;;8.66;66.05
59391;BME280;53405;57.012;40.984;2022-10-16T06:46:24;101395.81;;;8.80;65.74
59391;BME280;53405;57.012;40.984;2022-10-16T06:49:12;101404.41;;;8.82;65.47
59391;BME280;53405;57.012;40.984;2022-10-16T06:52:00;101376.97;;;8.75;64.22
59391;BME280;53405;57.012;40.984;2022-10-16T06:54:49;101404.06;;;9.06;64.07
59391;BME280;53405;57.012;40.984;2022-10-16T06:57:37;101399.53;;;9.18;63.76
59391;BME280;53405;57.012;40.984;2022-10-16T07:00:25;101397.22;;;9.44;63.02
59391;BME280;53405;57.012;40.984;2022-10-16T07:03:12;101393.50;;;9.37;63.95
59391;BME280;53405;57.012;40.984;2022-10-16T07:06:04;101411.22;;;9.45;61.31
59391;BME280;53405;57.012;40.984;2022-10-16T07:08:52;101414.53;;;9.47;61.44
59391;BME280;53405;57.012;40.984;2022-10-16T07:11:40;101407.19;;;9.31;61.53
59391;BME280;53405;57.012;40.984;2022-10-16T07:14:29;101419.53;;;9.40;62.26
59391;BME280;53405;57.012;40.984;2022-10-16T07:17:17;101417.47;;;9.63;62.29
59391;BME280;53405;57.012;40.984;2022-10-16T07:20:04;101395.88;;;9.59;60.64
59391;BME280;53405;57.012;40.984;2022-10-16T07:22:52;101416.50;;;9.84;62.56
59391;BME280;53405;57.012;40.984;2022-10-16T07:25:40;101423.03;;;10.19;59.23
59391;BME280;53405;57.012;40.984;2022-10-16T07:28:28;101417.47;;;10.41;58.48
59391;BME280;53405;57.012;40.984;2022-10-16T07:31:18;101419.84;;;10.35;58.03
59391;BME280;53405;57.012;40.984;2022-10-16T07:34:05;101420.91;;;10.42;58.39
59391;BME280;53405;57.012;40.984;2022-10-16T07:36:53;101402.25;;;10.73;57.55
59391;BME280;53405;57.012;40.984;2022-10-16T07:39:41;101417.34;;;11.08;55.86
59391;BME280;53405;57.012;40.984;2022-10-16T07:42:29;101426.03;;;11.00;54.44
59391;BME280;53405;57.012;40.984;2022-10-16T07:45:16;101418.16;;;11.18;54.96
59391;BME280;53405;57.012;40.984;2022-10-16T07:48:04;101424.53;;;11.16;54.53
59391;BME280;53405;57.012;40.984;2022-10-16T07:50:51;101423.94;;;11.22;53.72
59391;BME280;53405;57.012;40.984;2022-10-16T07:53:39;101417.31;;;11.64;52.06
59391;BME280;53405;57.012;40.984;2022-10-16T07:56:26;101425.97;;;12.80;50.51
59391;BME280;53405;57.012;40.984;2022-10-16T07:59:14;101406.06;;;13.53;46.48
59391;BME280;53405;57.012;40.984;2022-10-16T08:02:01;101416.00;;;13.60;46.68
59391;BME280;53405;57.012;40.984;2022-10-16T08:04:49;101423.81;;;13.86;45.81
59391;BME280;53405;57.012;40.984;2022-10-16T08:07:37;101417.34;;;13.80;46.17
59391;BME280;53405;57.012;40.984;2022-10-16T08:10:26;101410.66;;;14.50;45.49
59391;BME280;53405;57.012;40.984;2022-10-16T08:13:14;101413.94;;;14.77;43.58
59391;BME280;53405;57.012;40.984;2022-10-16T08:16:02;101414.97;;;14.68;43.38
59391;BME280;53405;57.012;40.984;2022-10-16T08:18:54;101414.19;;;14.98;42.94
59391;BME280;53405;57.012;40.984;2022-10-16T08:21:42;101409.63;;;14.84;43.64
59391;BME280;53405;57.012;40.984;2022-10-16T08:24:29;101404.16;;;14.86;43.26
59391;BME280;53405;57.012;40.984;2022-10-16T08:27:18;101412.75;;;13.99;43.90
59391;BME280;53405;57.012;40.984;2022-10-16T08:30:06;101407.34;;;13.33;44.96
59391;BME280;53405;57.012;40.984;2022-10-16T08:32:54;101402.06;;;12.90;45.97
59391;BME280;53405;57.012;40.984;2022-10-16T08:35:42;101399.22;;;12.31;47.24
59391;BME280;53405;57.012;40.984;2022-10-16T08:38:29;101405.47;;;12.04;48.18
59391;BME280;53405;57.012;40.984;2022-10-16T08:45:07;101389.19;;;11.54;49.12
59391;BME280;53405;57.012;40.984;2022-10-16T08:48:11;101401.81;;;11.33;49.71
59391;BME280;53405;57.012;40.984;2022-10-16T08:51:03;101384.09;;;11.25;49.79
59391;BME280;53405;57.012;40.984;2022-10-16T08:54:06;101389.22;;;11.27;49.72
59391;BME280;53405;57.012;40.984;2022-10-16T08:56:56;101395.44;;;11.35;50.95
59391;BME280;53405;57.012;40.984;2022-10-16T08:59:44;101395.91;;;11.67;49.35
59391;BME280;53405;57.012;40.984;2022-10-16T09:03:00;101395.91;;;11.67;49.45
59391;BME280;53405;57.012;40.984;2022-10-16T09:05:52;101396.50;;;11.79;49.63
59391;BME280;53405;57.012;40.984;2022-10-16T09:12:16;101393.44;;;11.65;48.56
59391;BME280;53405;57.012;40.984;2022-10-16T09:15:13;101394.69;;;11.61;49.04
59391;BME280;53405;57.012;40.984;2022-10-16T09:18:15;101400.34;;;11.66;48.43
59391;BME280;53405;57.012;40.984;2022-10-16T09:21:21;101396.06;;;11.65;48.62
59391;BME280;53405;57.012;40.984;2022-10-16T09:27:03;101398.63;;;11.75;48.41
59391;BME280;53405;57.012;40.984;2022-10-16T09:29:50;101402.47;;;11.63;48.65
59391;BME280;53405;57.012;40.984;2022-10-16T09:32:40;101397.25;;;11.89;48.98
59391;BME280;53405;57.012;40.984;2022-10-16T09:35:40;101400.81;;;11.80;48.62
59391;BME280;53405;57.012;40.984;2022-10-16T09:38:34;101403.00;;;12.02;48.61
59391;BME280;53405;57.012;40.984;2022-10-16T09:41:25;101401.22;;;12.29;48.26
59391;BME280;53405;57.012;40.984;2022-10-16T09:44:26;101395.00;;;12.38;47.67
59391;BME280;53405;57.012;40.984;2022-10-16T09:47:21;101406.50;;;12.29;46.59
59391;BME280;53405;57.012;40.984;2022-10-16T09:50:22;101397.47;;;12.14;47.32
59391;BME280;53405;57.012;40.984;2022-10-16T09:53:13;101402.75;;;12.14;47.46
59391;BME280;53405;57.012;40.984;2022-10-16T09:56:01;101393.66;;;12.34;48.27
59391;BME280;53405;57.012;40.984;2022-10-16T09:58:53;101407.84;;;12.33;46.37
59391;BME280;53405;57.012;40.984;2022-10-16T10:01:48;101409.09;;;12.21;46.60
59391;BME280;53405;57.012;40.984;2022-10-16T10:04:44;101397.13;;;12.35;45.62
59391;BME280;53405;57.012;40.984;2022-10-16T10:07:37;101391.06;;;12.16;46.28
59391;BME280;53405;57.012;40.984;2022-10-16T10:10:29;101396.94;;;12.10;46.18
59391;BME280;53405;57.012;40.984;2022-10-16T10:13:21;101385.47;;;12.19;46.46
59391;BME280;53405;57.012;40.984;2022-10-16T10:16:09;101392.97;;;12.32;46.47
59391;BME280;53405;57.012;40.984;2022-10-16T10:19:00;101387.84;;;12.31;46.30
59391;BME280;53405;57.012;40.984;2022-10-16T10:21:49;101383.97;;;12.43;46.22
59391;BME280;53405;57.012;40.984;2022-10-16T10:24:37;101377.94;;;12.59;46.20
59391;BME280;53405;57.012;40.984;2022-10-16T10:36:37;101379.38;;;12.88;45.21
59391;BME280;53405;57.012;40.984;2022-10-16T10:39:31;101369.81;;;12.87;46.85
59391;BME280;53405;57.012;40.984;2022-10-16T10:42:30;101367.50;;;12.83;44.85
59391;BME280;53405;57.012;40.984;2022-10-16T10:45:34;101381.34;;;12.77;45.93
59391;BME280;53405;57.012;40.984;2022-10-16T10:52:07;101391.22;;;13.61;44.63
59391;BME280;53405;57.012;40.984;2022-10-16T11:11:03;101375.63;;;15.74;39.49
59391;BME280;53405;57.012;40.984;2022-10-16T11:13:59;101374.25;;;15.78;38.91
59391;BME280;53405;57.012;40.984;2022-10-16T11:19:45;101376.25;;;15.52;39.52
59391;BME280;53405;57.012;40.984;2022-10-16T11:22:42;101349.75;;;15.21;42.24
59391;BME280;53405;57.012;40.984;2022-10-16T11:25:33;101377.44;;;15.50;40.24
59391;BME280;53405;57.012;40.984;2022-10-16T11:28:34;101368.47;;;14.96;40.32
59391;BME280;53405;57.012;40.984;2022-10-16T11:31:49;101363.47;;;14.62;41.35
59391;BME280;53405;57.012;40.984;2022-10-16T11:34:43;101369.03;;;14.84;40.79
59391;BME280;53405;57.012;40.984;2022-10-16T11:37:42;101370.34;;;15.65;39.56
59391;BME280;53405;57.012;40.984;2022-10-16T11:40:37;101364.06;;;15.89;39.46
59391;BME280;53405;57.012;40.984;2022-10-16T11:43:38;101366.59;;;16.21;37.82
59391;BME280;53405;57.012;40.984;2022-10-16T11:46:30;101356.34;;;15.80;39.30
59391;BME280;53405;57.012;40.984;2022-10-16T11:49:21;101360.88;;;16.09;39.99
59391;BME280;53405;57.012;40.984;2022-10-16T11:52:19;101359.16;;;16.31;37.81
59391;BME280;53405;57.012;40.984;2022-10-16T11:58:05;101370.16;;;16.28;38.43
59391;BME280;53405;57.012;40.984;2022-10-16T12:01:17;101360.97;;;16.16;37.68
59391;BME280;53405;57.012;40.984;2022-10-16T12:04:17;101365.47;;;16.00;37.77
59391;BME280;53405;57.012;40.984;2022-10-16T12:07:19;101351.13;;;15.63;38.50
59391;BME280;53405;57.012;40.984;2022-10-16T12:10:27;101350.72;;;15.28;39.29
59391;BME280;53405;57.012;40.984;2022-10-16T12:13:36;101352.88;;;15.48;38.96
59391;BME280;53405;57.012;40.984;2022-10-16T12:16:24;101354.63;;;15.41;38.69
59391;BME280;53405;57.012;40.984;2022-10-16T12:19:14;101349.91;;;15.20;39.22
59391;BME280;53405;57.012;40.984;2022-10-16T12:22:02;101343.22;;;15.32;39.35
59391;BME280;53405;57.012;40.984;2022-10-16T12:24:51;101335.44;;;15.30;39.16
59391;BME280;53405;57.012;40.984;2022-10-16T12:27:39;101338.44;;;15.27;39.12
59391;BME280;53405;57.012;40.984;2022-10-16T12:30:28;101334.81;;;15.51;41.24
59391;BME280;53405;57.012;40.984;2022-10-16T12:36:27;101324.19;;;14.97;41.28
59391;BME280;53405;57.012;40.984;2022-10-16T12:39:27;101335.28;;;14.61;42.30
59391;BME280;53405;57.012;40.984;2022-10-16T12:45:33;101327.06;;;14.31;41.27
59391;BME280;53405;57.012;40.984;2022-10-16T12:48:46;101325.00;;;13.94;42.00
59391;BME280;53405;57.012;40.984;2022-10-16T12:51:48;101321.56;;;13.77;42.38
59391;BME280;53405;57.012;40.984;2022-10-16T12:54:37;101324.53;;;13.73;42.49
59391;BME280;53405;57.012;40.984;2022-10-16T13:12:47;101316.25;;;13.44;44.03
59391;BME280;53405;57.012;40.984;2022-10-16T13:30:50;101306.09;;;13.23;44.18
59391;BME280;53405;57.012;40.984;2022-10-16T13:33:39;101306.41;;;13.03;44.61
59391;BME280;53405;57.012;40.984;2022-10-16T13:36:34;101299.09;;;12.89;45.52
59391;BME280;53405;57.012;40.984;2022-10-16T13:39:29;101303.06;;;12.93;44.96
59391;BME280;53405;57.012;40.984;2022-10-16T13:42:22;101304.16;;;12.74;46.75
59391;BME280;53405;57.012;40.984;2022-10-16T13:45:21;101297.31;;;12.55;47.12
59391;BME280;53405;57.012;40.984;2022-10-16T13:48:10;101307.72;;;12.56;47.62
59391;BME280;53405;57.012;40.984;2022-10-16T13:53:55;101305.88;;;12.48;48.21
59391;BME280;53405;57.012;40.984;2022-10-16T13:56:44;101294.94;;;12.35;48.61
59391;BME280;53405;57.012;40.984;2022-10-16T13:59:36;101309.50;;;12.39;47.05
59391;BME280;53405;57.012;40.984;2022-10-16T14:02:36;101301.97;;;12.26;47.76
59391;BME280;53405;57.012;40.984;2022-10-16T14:05:26;101305.66;;;12.34;47.32
59391;BME280;53405;57.012;40.984;2022-10-16T14:08:13;101299.88;;;12.04;47.75
59391;BME280;53405;57.012;40.984;2022-10-16T14:11:01;101320.44;;;11.92;48.06
59391;BME280;53405;57.012;40.984;2022-10-16T14:13:50;101310.22;;;11.79;48.48
59391;BME280;53405;57.012;40.984;2022-10-16T14:16:41;101315.00;;;11.75;49.97
59391;BME280;53405;57.012;40.984;2022-10-16T14:19:30;101315.19;;;11.82;50.24
59391;BME280;53405;57.012;40.984;2022-10-16T14:22:39;101302.91;;;11.73;49.50
59391;BME280;53405;57.012;40.984;2022-10-16T14:25:30;101321.63;;;11.80;49.48
59391;BME280;53405;57.012;40.984;2022-10-16T14:28:22;101330.56;;;11.61;50.81
59391;BME280;53405;57.012;40.984;2022-10-16T14:34:28;101314.19;;;11.39;49.93
59391;BME280;53405;57.012;40.984;2022-10-16T14:37:24;101328.94;;;11.32;51.13
59391;BME280;53405;57.012;40.984;2022-10-16T14:40:14;101333.94;;;11.17;50.70
59391;BME280;53405;57.012;40.984;2022-10-16T14:43:03;101319.00;;;11.08;50.42
59391;BME280;53405;57.012;40.984;2022-10-16T14:45:53;101339.25;;;11.07;50.94
59391;BME280;53405;57.012;40.984;2022-10-16T14:48:43;101320.25;;;10.85;51.41
59391;BME280;53405;57.012;40.984;2022-10-16T14:51:31;101334.53;;;10.83;51.55
59391;BME280;53405;57.012;40.984;2022-10-16T14:54:19;101312.16;;;10.69;52.49
59391;BME280;53405;57.012;40.984;2022-10-16T14:57:19;101322.34;;;10.82;53.12
59391;BME280;53405;57.012;40.984;2022-10-16T15:00:17;101341.66;;;10.73;53.07
59391;BME280;53405;57.012;40.984;2022-10-16T15:03:05;101341.75;;;10.81;52.46
59391;BME280;53405;57.012;40.984;2022-10-16T15:05:52;101332.78;;;10.74;53.42
59391;BME280;53405;57.012;40.984;2022-10-16T15:08:40;101341.63;;;10.82;53.70
59391;BME280;53405;57.012;40.984;2022-10-16T15:11:28;101342.13;;;10.86;53.24
59391;BME280;53405;57.012;40.984;2022-10-16T15:14:18;101339.06;;;10.91;52.42
59391;BME280;53405;57.012;40.984;2022-10-16T15:17:05;101335.44;;;10.74;51.90
59391;BME280;53405;57.012;40.984;2022-10-16T15:19:53;101330.91;;;10.56;53.03
59391;BME280;53405;57.012;40.984;2022-10-16T15:22:40;101345.41;;;10.70;53.20
59391;BME280;53405;57.012;40.984;2022-10-16T15:25:37;101345.16;;;10.63;52.80
59391;BME280;53405;57.012;40.984;2022-10-16T15:28:26;101334.16;;;10.50;54.64
59391;BME280;53405;57.012;40.984;2022-10-16T15:31:14;101339.41;;;10.50;54.05
59391;BME280;53405;57.012;40.984;2022-10-16T15:34:04;101343.59;;;10.43;53.08
59391;BME280;53405;57.012;40.984;2022-10-16T15:36:53;101343.47;;;10.35;54.20
59391;BME280;53405;57.012;40.984;2022-10-16T15:39:42;101332.38;;;10.21;53.81
59391;BME280;53405;57.012;40.984;2022-10-16T15:42:29;101324.91;;;10.17;54.56
59391;BME280;53405;57.012;40.984;2022-10-16T15:45:17;101340.72;;;10.17;53.80
59391;BME280;53405;57.012;40.984;2022-10-16T15:48:08;101337.94;;;10.18;53.82
59391;BME280;53405;57.012;40.984;2022-10-16T15:50:57;101337.50;;;10.23;55.43
59391;BME280;53405;57.012;40.984;2022-10-16T15:53:45;101340.56;;;10.38;54.45
59391;BME280;53405;57.012;40.984;2022-10-16T15:56:33;101327.22;;;10.29;54.14
59391;BME280;53405;57.012;40.984;2022-10-16T15:59:21;101338.91;;;10.17;53.94
59391;BME280;53405;57.012;40.984;2022-10-16T16:02:09;101324.94;;;10.07;54.55
59391;BME280;53405;57.012;40.984;2022-10-16T16:04:57;101337.03;;;10.00;54.65
59391;BME280;53405;57.012;40.984;2022-10-16T16:07:45;101331.03;;;10.07;54.61
59391;BME280;53405;57.012;40.984;2022-10-16T16:10:33;101337.41;;;10.05;54.74
59391;BME280;53405;57.012;40.984;2022-10-16T16:13:20;101333.84;;;9.86;55.76
59391;BME280;53405;57.012;40.984;2022-10-16T16:16:09;101329.81;;;9.82;55.86
59391;BME280;53405;57.012;40.984;2022-10-16T16:18:57;101337.44;;;9.75;56.10
59391;BME280;53405;57.012;40.984;2022-10-16T16:21:45;101331.38;;;9.55;56.20